sensor_id;sensor_type;location;lat;lon;timestamp;pressure;altitude;pressure_sealevel;temperature;humidity
11692;BME280;33659;42.672;23.354;2023-02-28T00:00:10;94789.16;;;7.43;90.31
11692;BME280;33659;42.672;23.354;2023-02-28T00:02:37;94789.63;;;7.45;90.18
11692;BME280;33659;42.672;23.354;2023-02-28T00:05:06;94808.22;;;7.39;90.57
11692;BME280;33659;42.672;23.354;2023-02-28T00:07:33;94813.50;;;7.25;91.36
11692;BME280;33659;42.672;23.354;2023-02-28T00:10:01;94788.28;;;7.25;91.44
11692;BME280;33659;42.672;23.354;2023-02-28T00:12:28;94801.47;;;7.29;91.57
11692;BME280;33659;42.672;23.354;2023-02-28T00:14:55;94800.59;;;7.20;91.70
11692;BME280;33659;42.672;23.354;2023-02-28T00:17:21;94810.06;;;7.16;91.77
11692;BME280;33659;42.672;23.354;2023-02-28T00:19:49;94808.75;;;7.04;92.18
11692;BME280;33659;42.672;23.354;2023-02-28T00:22:19;94804.78;;;7.07;92.39
11692;BME280;33659;42.672;23.354;2023-02-28T00:24:46;94815.63;;;7.23;92.87
11692;BME280;33659;42.672;23.354;2023-02-28T00:27:13;94822.47;;;7.41;92.76
11692;BME280;33659;42.672;23.354;2023-02-28T00:29:40;94813.13;;;7.63;92.52
11692;BME280;33659;42.672;23.354;2023-02-28T00:32:07;94824.56;;;7.84;91.58
11692;BME280;33659;42.672;23.354;2023-02-28T00:34:34;94821.94;;;8.06;90.42
11692;BME280;33659;42.672;23.354;2023-02-28T00:37:03;94804.84;;;8.23;89.17
11692;BME280;33659;42.672;23.354;2023-02-28T00:39:33;94826.84;;;8.39;87.52
11692;BME280;33659;42.672;23.354;2023-02-28T00:42:00;94821.66;;;8.56;86.40
11692;BME280;33659;42.672;23.354;2023-02-28T00:44:27;94800.25;;;8.68;85.00
11692;BME280;33659;42.672;23.354;2023-02-28T00:46:54;94801.34;;;8.76;84.26
11692;BME280;33659;42.672;23.354;2023-02-28T00:49:21;94798.13;;;8.79;83.33
11692;BME280;33659;42.672;23.354;2023-02-28T00:51:48;94794.91;;;8.73;83.65
11692;BME280;33659;42.672;23.354;2023-02-28T00:54:15;94793.69;;;8.71;83.48
11692;BME280;33659;42.672;23.354;2023-02-28T00:56:43;94794.91;;;8.73;83.73
11692;BME280;33659;42.672;23.354;2023-02-28T00:59:11;94789.25;;;8.80;83.45
11692;BME280;33659;42.672;23.354;2023-02-28T01:01:38;94798.59;;;8.81;82.71
11692;BME280;33659;42.672;23.354;2023-02-28T01:04:05;94815.47;;;8.92;82.35
11692;BME280;33659;42.672;23.354;2023-02-28T01:06:32;94807.66;;;9.01;81.85
11692;BME280;33659;42.672;23.354;2023-02-28T01:08:59;94811.94;;;9.05;80.90
11692;BME280;33659;42.672;23.354;2023-02-28T01:11:26;94808.13;;;9.11;80.91
11692;BME280;33659;42.672;23.354;2023-02-28T01:13:54;94799.09;;;9.17;80.49
11692;BME280;33659;42.672;23.354;2023-02-28T01:16:21;94794.47;;;9.23;80.24
11692;BME280;33659;42.672;23.354;2023-02-28T01:18:47;94790.03;;;9.23;79.79
11692;BME280;33659;42.672;23.354;2023-02-28T01:21:16;94804.44;;;9.30;79.56
11692;BME280;33659;42.672;23.354;2023-02-28T01:23:44;94797.25;;;9.35;79.40
11692;BME280;33659;42.672;23.354;2023-02-28T01:26:17;94795.84;;;9.38;78.75
11692;BME280;33659;42.672;23.354;2023-02-28T01:28:44;94791.41;;;9.38;79.01
11692;BME280;33659;42.672;23.354;2023-02-28T01:31:13;94790.94;;;9.45;78.92
11692;BME280;33659;42.672;23.354;2023-02-28T01:33:40;94793.53;;;9.45;78.21
11692;BME280;33659;42.672;23.354;2023-02-28T01:36:09;94794.47;;;9.49;78.34
11692;BME280;33659;42.672;23.354;2023-02-28T01:38:37;94795.53;;;9.57;77.63
11692;BME280;33659;42.672;23.354;2023-02-28T01:41:04;94792.31;;;9.60;77.47
11692;BME280;33659;42.672;23.354;2023-02-28T01:43:52;94797.38;;;9.56;77.26
11692;BME280;33659;42.672;23.354;2023-02-28T01:46:20;94799.53;;;9.54;77.20
11692;BME280;33659;42.672;23.354;2023-02-28T01:48:50;94795.06;;;9.46;77.31
11692;BME280;33659;42.672;23.354;2023-02-28T01:51:20;94799.06;;;9.43;77.60
11692;BME280;33659;42.672;23.354;2023-02-28T01:53:53;94801.84;;;9.47;76.90
11692;BME280;33659;42.672;23.354;2023-02-28T01:56:24;94804.44;;;9.47;76.79
11692;BME280;33659;42.672;23.354;2023-02-28T01:58:54;94807.66;;;9.44;76.81
11692;BME280;33659;42.672;23.354;2023-02-28T02:01:22;94802.00;;;9.42;76.75
11692;BME280;33659;42.672;23.354;2023-02-28T02:03:51;94800.16;;;9.42;76.89
11692;BME280;33659;42.672;23.354;2023-02-28T02:06:21;94807.97;;;9.42;76.97
11692;BME280;33659;42.672;23.354;2023-02-28T02:08:48;94797.53;;;9.42;76.50
11692;BME280;33659;42.672;23.354;2023-02-28T02:11:18;94804.75;;;9.37;77.07
11692;BME280;33659;42.672;23.354;2023-02-28T02:14:22;94800.31;;;9.37;77.15
11692;BME280;33659;42.672;23.354;2023-02-28T02:17:06;94800.94;;;9.34;76.99
11692;BME280;33659;42.672;23.354;2023-02-28T02:23:15;94788.34;;;9.36;77.45
11692;BME280;33659;42.672;23.354;2023-02-28T02:25:51;94790.97;;;9.28;77.29
11692;BME280;33659;42.672;23.354;2023-02-28T02:28:49;94787.91;;;9.08;78.03
11692;BME280;33659;42.672;23.354;2023-02-28T02:31:33;94783.91;;;8.85;78.79
11692;BME280;33659;42.672;23.354;2023-02-28T02:34:25;94791.84;;;8.80;79.66
11692;BME280;33659;42.672;23.354;2023-02-28T02:36:59;94794.31;;;8.85;79.60
11692;BME280;33659;42.672;23.354;2023-02-28T02:39:34;94795.41;;;8.92;79.98
11692;BME280;33659;42.672;23.354;2023-02-28T02:42:11;94801.06;;;9.03;79.28
11692;BME280;33659;42.672;23.354;2023-02-28T02:44:44;94809.50;;;9.09;78.84
11692;BME280;33659;42.672;23.354;2023-02-28T02:47:15;94804.75;;;9.11;78.55
11692;BME280;33659;42.672;23.354;2023-02-28T02:49:47;94809.66;;;9.12;78.63
11692;BME280;33659;42.672;23.354;2023-02-28T02:52:18;94808.88;;;9.20;78.36
11692;BME280;33659;42.672;23.354;2023-02-28T02:54:48;94813.94;;;9.26;77.97
11692;BME280;33659;42.672;23.354;2023-02-28T02:57:24;94802.28;;;9.32;77.85
11692;BME280;33659;42.672;23.354;2023-02-28T02:59:53;94811.34;;;9.34;77.16
11692;BME280;33659;42.672;23.354;2023-02-28T03:02:23;94817.78;;;9.37;77.10
11692;BME280;33659;42.672;23.354;2023-02-28T03:04:56;94829.28;;;9.36;77.18
11692;BME280;33659;42.672;23.354;2023-02-28T03:07:26;94828.38;;;9.40;76.57
11692;BME280;33659;42.672;23.354;2023-02-28T03:09:54;94840.00;;;9.43;76.71
11692;BME280;33659;42.672;23.354;2023-02-28T03:12:24;94840.94;;;9.47;76.55
11692;BME280;33659;42.672;23.354;2023-02-28T03:14:56;94838.16;;;9.52;76.65
11692;BME280;33659;42.672;23.354;2023-02-28T03:17:41;94839.84;;;9.57;76.92
11692;BME280;33659;42.672;23.354;2023-02-28T03:20:17;94844.91;;;9.53;76.64
11692;BME280;33659;42.672;23.354;2023-02-28T03:22:58;94843.53;;;9.56;76.68
11692;BME280;33659;42.672;23.354;2023-02-28T03:25:33;94847.34;;;9.58;76.76
11692;BME280;33659;42.672;23.354;2023-02-28T03:28:08;94851.19;;;9.61;76.78
11692;BME280;33659;42.672;23.354;2023-02-28T03:30:42;94854.09;;;9.59;76.34
11692;BME280;33659;42.672;23.354;2023-02-28T03:33:12;94850.91;;;9.54;76.95
11692;BME280;33659;42.672;23.354;2023-02-28T03:35:45;94864.84;;;9.49;77.32
11692;BME280;33659;42.672;23.354;2023-02-28T03:38:18;94853.06;;;9.34;77.66
11692;BME280;33659;42.672;23.354;2023-02-28T03:40:49;94849.81;;;9.20;77.43
11692;BME280;33659;42.672;23.354;2023-02-28T03:43:20;94849.97;;;9.15;78.45
11692;BME280;33659;42.672;23.354;2023-02-28T03:45:50;94862.22;;;9.14;78.93
11692;BME280;33659;42.672;23.354;2023-02-28T03:48:21;94859.78;;;9.18;78.98
11692;BME280;33659;42.672;23.354;2023-02-28T03:50:53;94862.25;;;9.23;78.45
11692;BME280;33659;42.672;23.354;2023-02-28T03:53:25;94867.44;;;9.23;78.32
11692;BME280;33659;42.672;23.354;2023-02-28T03:55:58;94865.47;;;9.29;78.38
11692;BME280;33659;42.672;23.354;2023-02-28T03:58:30;94864.84;;;9.32;78.13
11692;BME280;33659;42.672;23.354;2023-02-28T04:01:03;94863.47;;;9.34;78.00
11692;BME280;33659;42.672;23.354;2023-02-28T04:03:34;94875.56;;;9.30;77.52
11692;BME280;33659;42.672;23.354;2023-02-28T04:06:04;94876.66;;;9.29;77.76
11692;BME280;33659;42.672;23.354;2023-02-28T04:08:32;94874.81;;;9.30;77.71
11692;BME280;33659;42.672;23.354;2023-02-28T04:11:03;94872.97;;;9.30;77.93
11692;BME280;33659;42.672;23.354;2023-02-28T04:13:31;94867.28;;;9.19;78.17
11692;BME280;33659;42.672;23.354;2023-02-28T04:15:58;94859.47;;;9.11;78.92
11692;BME280;33659;42.672;23.354;2023-02-28T04:18:25;94869.44;;;9.17;78.90
11692;BME280;33659;42.672;23.354;2023-02-28T04:20:51;94856.84;;;9.19;78.56
11692;BME280;33659;42.672;23.354;2023-02-28T04:23:19;94856.25;;;9.22;78.79
11692;BME280;33659;42.672;23.354;2023-02-28T04:25:46;94859.31;;;9.16;78.48
11692;BME280;33659;42.672;23.354;2023-02-28T04:28:12;94860.06;;;8.99;79.43
11692;BME280;33659;42.672;23.354;2023-02-28T04:30:39;94868.50;;;8.96;79.33
11692;BME280;33659;42.672;23.354;2023-02-28T04:33:06;94871.56;;;8.98;79.56
11692;BME280;33659;42.672;23.354;2023-02-28T04:35:32;94869.41;;;9.00;79.32
11692;BME280;33659;42.672;23.354;2023-02-28T04:37:59;94868.50;;;8.96;79.46
11692;BME280;33659;42.672;23.354;2023-02-28T04:40:27;94876.59;;;8.94;79.50
11692;BME280;33659;42.672;23.354;2023-02-28T04:42:54;94873.53;;;8.92;79.55
11692;BME280;33659;42.672;23.354;2023-02-28T04:45:20;94870.28;;;8.87;79.95
11692;BME280;33659;42.672;23.354;2023-02-28T04:47:47;94887.31;;;8.93;79.69
11692;BME280;33659;42.672;23.354;2023-02-28T04:50:14;94890.81;;;8.88;79.16
11692;BME280;33659;42.672;23.354;2023-02-28T04:52:41;94892.81;;;8.83;79.43
11692;BME280;33659;42.672;23.354;2023-02-28T04:55:08;94892.00;;;8.74;79.60
11692;BME280;33659;42.672;23.354;2023-02-28T04:57:36;94894.16;;;8.72;79.93
11692;BME280;33659;42.672;23.354;2023-02-28T05:00:03;94871.63;;;8.67;79.79
11692;BME280;33659;42.672;23.354;2023-02-28T05:02:37;94892.31;;;8.63;79.57
11692;BME280;33659;42.672;23.354;2023-02-28T05:05:04;94895.63;;;8.55;80.14
11692;BME280;33659;42.672;23.354;2023-02-28T05:07:30;94897.75;;;8.53;80.57
11692;BME280;33659;42.672;23.354;2023-02-28T05:09:57;94899.28;;;8.54;80.31
11692;BME280;33659;42.672;23.354;2023-02-28T05:12:24;94905.25;;;8.55;79.69
11692;BME280;33659;42.672;23.354;2023-02-28T05:14:52;94899.28;;;8.54;79.68
11692;BME280;33659;42.672;23.354;2023-02-28T05:17:18;94887.53;;;8.57;79.86
11692;BME280;33659;42.672;23.354;2023-02-28T05:19:45;94901.16;;;8.62;79.85
11692;BME280;33659;42.672;23.354;2023-02-28T05:22:14;94915.72;;;8.63;79.51
11692;BME280;33659;42.672;23.354;2023-02-28T05:24:42;94916.78;;;8.62;79.01
11692;BME280;33659;42.672;23.354;2023-02-28T05:27:08;94914.16;;;8.62;79.72
11692;BME280;33659;42.672;23.354;2023-02-28T05:29:35;94916.94;;;8.66;79.37
11692;BME280;33659;42.672;23.354;2023-02-28T05:32:09;94905.00;;;8.65;79.14
11692;BME280;33659;42.672;23.354;2023-02-28T05:34:36;94921.72;;;8.73;79.14
11692;BME280;33659;42.672;23.354;2023-02-28T05:37:03;94919.44;;;8.80;79.17
11692;BME280;33659;42.672;23.354;2023-02-28T05:39:29;94922.56;;;8.90;79.05
11692;BME280;33659;42.672;23.354;2023-02-28T05:41:56;94924.09;;;9.00;78.46
11692;BME280;33659;42.672;23.354;2023-02-28T05:44:23;94927.03;;;9.07;77.67
11692;BME280;33659;42.672;23.354;2023-02-28T05:46:50;94927.19;;;9.11;77.66
11692;BME280;33659;42.672;23.354;2023-02-28T05:49:18;94927.97;;;9.11;77.19
11692;BME280;33659;42.672;23.354;2023-02-28T05:51:44;94937.63;;;9.11;77.60
11692;BME280;33659;42.672;23.354;2023-02-28T05:54:11;94938.84;;;9.05;77.25
11692;BME280;33659;42.672;23.354;2023-02-28T05:56:38;94935.91;;;8.98;77.62
11692;BME280;33659;42.672;23.354;2023-02-28T05:59:06;94949.81;;;8.93;78.21
11692;BME280;33659;42.672;23.354;2023-02-28T06:01:34;94942.13;;;8.88;78.41
11692;BME280;33659;42.672;23.354;2023-02-28T06:04:03;94939.38;;;8.84;78.35
11692;BME280;33659;42.672;23.354;2023-02-28T06:06:32;94945.38;;;8.85;79.03
11692;BME280;33659;42.672;23.354;2023-02-28T06:09:00;94933.75;;;8.91;79.06
11692;BME280;33659;42.672;23.354;2023-02-28T06:11:27;94932.22;;;8.99;78.60
11692;BME280;33659;42.672;23.354;2023-02-28T06:13:54;94924.88;;;9.01;78.46
11692;BME280;33659;42.672;23.354;2023-02-28T06:16:21;94918.00;;;9.05;78.09
11692;BME280;33659;42.672;23.354;2023-02-28T06:18:47;94929.94;;;9.14;78.14
11692;BME280;33659;42.672;23.354;2023-02-28T06:21:14;94930.88;;;9.18;78.04
11692;BME280;33659;42.672;23.354;2023-02-28T06:23:42;94928.47;;;9.22;77.43
11692;BME280;33659;42.672;23.354;2023-02-28T06:26:09;94930.13;;;9.18;77.58
11692;BME280;33659;42.672;23.354;2023-02-28T06:28:36;94928.91;;;9.15;77.86
11692;BME280;33659;42.672;23.354;2023-02-28T06:31:06;94932.09;;;9.12;77.48
11692;BME280;33659;42.672;23.354;2023-02-28T06:33:34;94943.72;;;9.06;77.99
11692;BME280;33659;42.672;23.354;2023-02-28T06:36:00;94907.25;;;8.89;77.53
11692;BME280;33659;42.672;23.354;2023-02-28T06:38:27;94940.84;;;9.16;77.40
11692;BME280;33659;42.672;23.354;2023-02-28T06:40:56;94945.94;;;9.21;77.60
11692;BME280;33659;42.672;23.354;2023-02-28T06:43:23;94951.75;;;9.27;77.51
11692;BME280;33659;42.672;23.354;2023-02-28T06:45:53;94954.22;;;9.32;77.04
11692;BME280;33659;42.672;23.354;2023-02-28T06:48:20;94949.44;;;9.26;76.91
11692;BME280;33659;42.672;23.354;2023-02-28T06:50:47;94953.75;;;9.21;76.98
11692;BME280;33659;42.672;23.354;2023-02-28T06:53:14;94951.72;;;9.18;76.96
11692;BME280;33659;42.672;23.354;2023-02-28T06:55:41;94954.97;;;9.15;77.35
11692;BME280;33659;42.672;23.354;2023-02-28T06:58:09;94946.50;;;9.10;77.60
11692;BME280;33659;42.672;23.354;2023-02-28T07:00:40;94958.03;;;9.17;77.17
11692;BME280;33659;42.672;23.354;2023-02-28T07:03:07;94956.63;;;9.20;77.18
11692;BME280;33659;42.672;23.354;2023-02-28T07:05:34;94960.63;;;9.26;76.95
11692;BME280;33659;42.672;23.354;2023-02-28T07:08:01;94961.56;;;9.30;76.84
11692;BME280;33659;42.672;23.354;2023-02-28T07:10:28;94952.53;;;9.28;76.69
11692;BME280;33659;42.672;23.354;2023-02-28T07:12:55;94953.63;;;9.35;76.52
11692;BME280;33659;42.672;23.354;2023-02-28T07:15:23;94951.66;;;9.41;75.88
11692;BME280;33659;42.672;23.354;2023-02-28T07:17:49;94950.25;;;9.43;76.29
11692;BME280;33659;42.672;23.354;2023-02-28T07:20:16;94945.34;;;9.42;76.14
11692;BME280;33659;42.672;23.354;2023-02-28T07:22:43;94956.09;;;9.49;75.43
11692;BME280;33659;42.672;23.354;2023-02-28T07:25:10;94955.16;;;9.45;75.76
11692;BME280;33659;42.672;23.354;2023-02-28T07:27:36;94955.91;;;9.45;75.87
11692;BME280;33659;42.672;23.354;2023-02-28T07:30:04;94963.59;;;9.50;75.66
11692;BME280;33659;42.672;23.354;2023-02-28T07:32:32;94960.06;;;9.46;75.75
11692;BME280;33659;42.672;23.354;2023-02-28T07:35:03;94957.16;;;9.48;76.26
11692;BME280;33659;42.672;23.354;2023-02-28T07:37:30;94959.78;;;9.48;76.23
11692;BME280;33659;42.672;23.354;2023-02-28T07:40:02;94955.19;;;9.54;76.33
11692;BME280;33659;42.672;23.354;2023-02-28T07:42:29;94959.78;;;9.65;76.14
11692;BME280;33659;42.672;23.354;2023-02-28T07:44:56;94958.41;;;9.76;75.73
11692;BME280;33659;42.672;23.354;2023-02-28T07:47:22;94958.09;;;9.78;76.00
11692;BME280;33659;42.672;23.354;2023-02-28T07:49:50;94955.94;;;9.71;76.31
11692;BME280;33659;42.672;23.354;2023-02-28T07:52:18;94951.22;;;9.73;76.46
11692;BME280;33659;42.672;23.354;2023-02-28T07:54:44;94944.91;;;9.74;76.44
11692;BME280;33659;42.672;23.354;2023-02-28T07:57:11;94949.50;;;9.69;76.60
11692;BME280;33659;42.672;23.354;2023-02-28T07:59:37;94946.91;;;9.69;77.06
11692;BME280;33659;42.672;23.354;2023-02-28T08:02:05;94941.69;;;9.69;76.76
11692;BME280;33659;42.672;23.354;2023-02-28T08:04:31;94941.84;;;9.72;76.83
11692;BME280;33659;42.672;23.354;2023-02-28T08:06:59;94950.44;;;9.82;77.26
11692;BME280;33659;42.672;23.354;2023-02-28T08:09:26;94949.81;;;9.93;76.96
11692;BME280;33659;42.672;23.354;2023-02-28T08:11:52;94952.88;;;10.04;76.62
11692;BME280;33659;42.672;23.354;2023-02-28T08:14:19;94954.53;;;10.17;76.34
11692;BME280;33659;42.672;23.354;2023-02-28T08:16:46;94954.84;;;10.33;76.40
11692;BME280;33659;42.672;23.354;2023-02-28T08:19:12;94943.47;;;10.46;76.24
11692;BME280;33659;42.672;23.354;2023-02-28T08:21:39;94925.03;;;10.43;75.61
11692;BME280;33659;42.672;23.354;2023-02-28T08:24:08;94954.91;;;10.71;75.11
11692;BME280;33659;42.672;23.354;2023-02-28T08:26:34;94953.66;;;10.77;75.05
11692;BME280;33659;42.672;23.354;2023-02-28T08:29:01;94959.34;;;10.79;75.04
11692;BME280;33659;42.672;23.354;2023-02-28T08:31:28;94959.50;;;10.83;75.45
11692;BME280;33659;42.672;23.354;2023-02-28T08:33:54;94957.75;;;10.87;75.52
11692;BME280;33659;42.672;23.354;2023-02-28T08:36:24;94955.97;;;10.79;76.56
11692;BME280;33659;42.672;23.354;2023-02-28T08:38:51;94956.72;;;10.79;76.91
11692;BME280;33659;42.672;23.354;2023-02-28T08:41:19;94952.91;;;10.77;77.91
11692;BME280;33659;42.672;23.354;2023-02-28T08:43:46;94958.41;;;10.84;78.12
11692;BME280;33659;42.672;23.354;2023-02-28T08:46:13;94953.44;;;10.91;78.23
11692;BME280;33659;42.672;23.354;2023-02-28T08:48:40;94955.75;;;10.93;78.13
11692;BME280;33659;42.672;23.354;2023-02-28T08:51:08;94951.44;;;10.97;78.52
11692;BME280;33659;42.672;23.354;2023-02-28T08:53:36;94951.56;;;11.00;78.60
11692;BME280;33659;42.672;23.354;2023-02-28T08:56:06;94951.69;;;11.04;79.02
11692;BME280;33659;42.672;23.354;2023-02-28T08:58:35;94959.28;;;10.97;78.48
11692;BME280;33659;42.672;23.354;2023-02-28T09:01:07;94955.31;;;10.91;79.13
11692;BME280;33659;42.672;23.354;2023-02-28T09:03:34;94960.34;;;10.96;78.88
11692;BME280;33659;42.672;23.354;2023-02-28T09:06:01;94957.09;;;10.99;78.95
11692;BME280;33659;42.672;23.354;2023-02-28T09:08:30;94953.13;;;10.93;79.86
11692;BME280;33659;42.672;23.354;2023-02-28T09:10:57;94955.13;;;10.96;79.47
11692;BME280;33659;42.672;23.354;2023-02-28T09:13:25;94954.84;;;10.89;79.99
11692;BME280;33659;42.672;23.354;2023-02-28T09:15:57;94955.13;;;10.96;79.64
11692;BME280;33659;42.672;23.354;2023-02-28T09:18:24;94951.09;;;10.98;79.42
11692;BME280;33659;42.672;23.354;2023-02-28T09:20:51;94950.19;;;10.94;79.66
11692;BME280;33659;42.672;23.354;2023-02-28T09:23:18;94948.34;;;10.95;79.07
11692;BME280;33659;42.672;23.354;2023-02-28T09:25:47;94944.47;;;10.71;79.48
11692;BME280;33659;42.672;23.354;2023-02-28T09:28:13;94942.19;;;10.61;79.98
11692;BME280;33659;42.672;23.354;2023-02-28T09:30:42;94946.63;;;10.69;80.30
11692;BME280;33659;42.672;23.354;2023-02-28T09:33:11;94941.69;;;10.76;79.69
11692;BME280;33659;42.672;23.354;2023-02-28T09:35:38;94952.41;;;10.83;79.81
11692;BME280;33659;42.672;23.354;2023-02-28T09:38:05;94943.44;;;10.93;79.16
11692;BME280;33659;42.672;23.354;2023-02-28T09:40:37;94951.00;;;10.86;78.43
11692;BME280;33659;42.672;23.354;2023-02-28T09:43:05;94948.53;;;10.90;78.87
11692;BME280;33659;42.672;23.354;2023-02-28T09:45:39;94944.03;;;10.99;79.11
11692;BME280;33659;42.672;23.354;2023-02-28T09:48:12;94945.84;;;11.07;78.82
11692;BME280;33659;42.672;23.354;2023-02-28T09:50:45;94938.47;;;11.09;78.89
11692;BME280;33659;42.672;23.354;2023-02-28T09:53:18;94948.91;;;11.09;77.97
11692;BME280;33659;42.672;23.354;2023-02-28T09:55:49;94944.06;;;11.20;77.55
11692;BME280;33659;42.672;23.354;2023-02-28T09:58:21;94934.22;;;11.25;77.47
11692;BME280;33659;42.672;23.354;2023-02-28T10:00:56;94938.63;;;11.33;76.78
11692;BME280;33659;42.672;23.354;2023-02-28T10:03:30;94935.47;;;11.49;76.23
11692;BME280;33659;42.672;23.354;2023-02-28T10:06:03;94938.75;;;11.58;75.74
11692;BME280;33659;42.672;23.354;2023-02-28T10:08:36;94935.44;;;11.70;75.53
11692;BME280;33659;42.672;23.354;2023-02-28T10:11:10;94929.88;;;11.71;75.14
11692;BME280;33659;42.672;23.354;2023-02-28T10:13:47;94924.59;;;11.80;74.85
11692;BME280;33659;42.672;23.354;2023-02-28T10:16:21;94925.22;;;11.77;73.94
11692;BME280;33659;42.672;23.354;2023-02-28T10:18:54;94931.88;;;11.74;74.14
11692;BME280;33659;42.672;23.354;2023-02-28T10:21:26;94922.38;;;11.90;73.97
11692;BME280;33659;42.672;23.354;2023-02-28T10:24:02;94919.91;;;11.94;73.13
11692;BME280;33659;42.672;23.354;2023-02-28T10:26:32;94930.38;;;11.94;72.67
11692;BME280;33659;42.672;23.354;2023-02-28T10:28:59;94910.06;;;11.91;72.37
11692;BME280;33659;42.672;23.354;2023-02-28T10:31:26;94919.25;;;11.97;72.40
11692;BME280;33659;42.672;23.354;2023-02-28T10:33:54;94906.44;;;12.16;72.25
11692;BME280;33659;42.672;23.354;2023-02-28T10:36:21;94915.00;;;12.38;71.67
11692;BME280;33659;42.672;23.354;2023-02-28T10:38:48;94904.91;;;12.73;70.79
11692;BME280;33659;42.672;23.354;2023-02-28T10:41:17;94902.16;;;13.18;68.73
11692;BME280;33659;42.672;23.354;2023-02-28T10:43:53;94892.84;;;13.45;68.10
11692;BME280;33659;42.672;23.354;2023-02-28T10:46:39;94895.53;;;13.61;66.68
11692;BME280;33659;42.672;23.354;2023-02-28T10:49:14;94900.06;;;13.76;66.06
11692;BME280;33659;42.672;23.354;2023-02-28T10:51:41;94892.91;;;13.89;65.62
11692;BME280;33659;42.672;23.354;2023-02-28T10:54:16;94892.44;;;13.99;65.54
11692;BME280;33659;42.672;23.354;2023-02-28T10:56:42;94889.09;;;14.15;64.82
11692;BME280;33659;42.672;23.354;2023-02-28T10:59:27;94876.94;;;14.38;63.58
11692;BME280;33659;42.672;23.354;2023-02-28T11:01:54;94876.94;;;14.38;62.75
11692;BME280;33659;42.672;23.354;2023-02-28T11:04:35;94874.81;;;14.44;62.56
11692;BME280;33659;42.672;23.354;2023-02-28T11:07:06;94871.66;;;14.38;62.65
11692;BME280;33659;42.672;23.354;2023-02-28T11:09:35;94860.28;;;14.18;63.38
11692;BME280;33659;42.672;23.354;2023-02-28T11:12:03;94862.94;;;14.18;62.64
11692;BME280;33659;42.672;23.354;2023-02-28T11:14:32;94865.69;;;14.09;62.76
11692;BME280;33659;42.672;23.354;2023-02-28T11:17:13;94863.00;;;14.22;62.84
11692;BME280;33659;42.672;23.354;2023-02-28T11:19:46;94867.16;;;14.23;62.26
11692;BME280;33659;42.672;23.354;2023-02-28T11:22:19;94860.13;;;14.27;62.59
11692;BME280;33659;42.672;23.354;2023-02-28T11:24:50;94861.66;;;14.28;62.68
11692;BME280;33659;42.672;23.354;2023-02-28T11:27:43;94860.81;;;14.24;62.55
11692;BME280;33659;42.672;23.354;2023-02-28T11:30:34;94851.78;;;14.09;62.86
11692;BME280;33659;42.672;23.354;2023-02-28T11:33:01;94865.56;;;13.90;62.54
11692;BME280;33659;42.672;23.354;2023-02-28T11:35:32;94854.13;;;13.54;63.64
11692;BME280;33659;42.672;23.354;2023-02-28T11:38:00;94849.69;;;13.43;65.02
11692;BME280;33659;42.672;23.354;2023-02-28T11:40:36;94851.84;;;13.53;64.85
11692;BME280;33659;42.672;23.354;2023-02-28T11:43:19;94848.84;;;13.67;64.37
11692;BME280;33659;42.672;23.354;2023-02-28T11:46:00;94848.59;;;13.72;63.94
11692;BME280;33659;42.672;23.354;2023-02-28T11:48:38;94825.63;;;13.69;64.33
11692;BME280;33659;42.672;23.354;2023-02-28T11:51:15;94850.44;;;13.71;64.54
11692;BME280;33659;42.672;23.354;2023-02-28T11:54:02;94846.66;;;13.85;64.80
11692;BME280;33659;42.672;23.354;2023-02-28T11:56:32;94837.97;;;13.96;64.04
11692;BME280;33659;42.672;23.354;2023-02-28T11:59:12;94845.72;;;14.05;63.32
11692;BME280;33659;42.672;23.354;2023-02-28T12:01:56;94838.00;;;14.12;62.67
11692;BME280;33659;42.672;23.354;2023-02-28T12:04:34;94851.72;;;14.21;62.86
11692;BME280;33659;42.672;23.354;2023-02-28T12:07:15;94835.53;;;14.03;63.16
11692;BME280;33659;42.672;23.354;2023-02-28T12:09:50;94839.59;;;14.01;63.38
11692;BME280;33659;42.672;23.354;2023-02-28T12:12:28;94838.91;;;13.88;63.47
11692;BME280;33659;42.672;23.354;2023-02-28T12:15:18;94838.59;;;13.77;63.86
11692;BME280;33659;42.672;23.354;2023-02-28T12:17:58;94838.28;;;13.79;64.16
11692;BME280;33659;42.672;23.354;2023-02-28T12:20:32;94831.84;;;13.76;64.19
11692;BME280;33659;42.672;23.354;2023-02-28T12:23:17;94838.72;;;13.81;63.59
11692;BME280;33659;42.672;23.354;2023-02-28T12:26:07;94830.72;;;13.77;63.89
11692;BME280;33659;42.672;23.354;2023-02-28T12:28:43;94844.44;;;13.71;63.90
11692;BME280;33659;42.672;23.354;2023-02-28T12:31:16;94837.91;;;13.65;64.54
11692;BME280;33659;42.672;23.354;2023-02-28T12:33:47;94838.59;;;13.77;64.06
11692;BME280;33659;42.672;23.354;2023-02-28T12:36:18;94839.38;;;13.78;63.77
11692;BME280;33659;42.672;23.354;2023-02-28T12:38:51;94841.09;;;13.86;63.20
11692;BME280;33659;42.672;23.354;2023-02-28T12:41:26;94839.63;;;13.73;63.56
11692;BME280;33659;42.672;23.354;2023-02-28T12:44:01;94828.31;;;13.57;63.73
11692;BME280;33659;42.672;23.354;2023-02-28T12:46:33;94829.88;;;13.45;63.87
11692;BME280;33659;42.672;23.354;2023-02-28T12:49:04;94817.81;;;13.28;64.22
11692;BME280;33659;42.672;23.354;2023-02-28T12:51:32;94821.75;;;13.22;64.41
11692;BME280;33659;42.672;23.354;2023-02-28T12:54:10;94814.47;;;12.91;64.62
11692;BME280;33659;42.672;23.354;2023-02-28T12:56:44;94824.00;;;12.84;65.57
11692;BME280;33659;42.672;23.354;2023-02-28T12:59:22;94816.69;;;12.65;65.59
11692;BME280;33659;42.672;23.354;2023-02-28T13:05:07;94817.22;;;12.34;66.84
11692;BME280;33659;42.672;23.354;2023-02-28T13:07:58;94829.03;;;12.52;66.81
11692;BME280;33659;42.672;23.354;2023-02-28T13:10:42;94828.47;;;12.46;66.71
11692;BME280;33659;42.672;23.354;2023-02-28T13:13:15;94819.06;;;12.21;67.50
11692;BME280;33659;42.672;23.354;2023-02-28T13:15:58;94812.47;;;11.90;68.79
11692;BME280;33659;42.672;23.354;2023-02-28T13:18:30;94811.94;;;11.64;70.15